Time;durP1;ratioP1;P1;durP2;ratioP2;P2;SDS_P1;SDS_P2;PMS_P1;PMS_P2;Temp;Humidity;BMP_temperature;BMP_pressure;BME280_temperature;BME280_humidity;BME280_pressure;Samples;Min_cycle;Max_cycle;Signal;HPM_P1;HPM_P2
2022/04/03 00:02:23;;;;;;;;;;;;;;;-0.87;83.48;96759.66;5085866;28;19980;-63
2022/04/03 00:04:49;;;;;;;;;;;;;;;-0.91;83.47;96756.72;5072795;28;19971;-61
2022/04/03 00:07:14;;;;;;;;;;;;;;;-0.95;83.43;96750.38;5076184;28;19964;-60
2022/04/03 00:09:40;;;;;;;;;;;;;;;-1.01;83.30;96764.28;5092774;28;19924;-60
2022/04/03 00:12:05;;;;;;;;;;;;;;;-0.96;83.36;96759.22;5091682;28;19928;-60
2022/04/03 00:14:31;;;;;;;;;;;;;;;-0.99;82.98;96762.28;5091500;28;19931;-61
2022/04/03 00:16:56;;;;;;;;;;;;;;;-1.04;83.36;96760.34;5092221;28;19928;-62
2022/04/03 00:19:23;;;;;;;;;;;;;;;-1.01;83.04;96764.28;5092681;28;19968;-60
2022/04/03 00:21:49;;;;;;;;;;;;;;;-1.02;82.76;96767.94;5092752;28;19933;-61
2022/04/03 00:24:14;;;;;;;;;;;;;;;-0.94;83.25;96757.19;5092408;28;19924;-61
2022/04/03 00:26:40;;;;;;;;;;;;;;;-0.92;82.67;96763.72;5092318;28;19934;-61
2022/04/03 00:29:05;;;;;;;;;;;;;;;-1.01;82.68;96759.09;5088707;28;19928;-61
2022/04/03 00:31:31;;;;;;;;;;;;;;;-1.00;82.82;96764.09;5092234;28;19978;-61
2022/04/03 00:33:56;;;;;;;;;;;;;;;-1.07;83.08;96763.41;5092446;28;20128;-60
2022/04/03 00:36:22;;;;;;;;;;;;;;;-1.03;82.93;96753.31;5084926;28;19932;-60
2022/04/03 00:38:48;;;;;;;;;;;;;;;-0.94;83.29;96759.78;5080724;28;19927;-62
2022/04/03 00:41:14;;;;;;;;;;;;;;;-1.03;82.19;96761.94;5091967;28;20023;-61
2022/04/03 00:43:40;;;;;;;;;;;;;;;-1.01;82.69;96764.28;5092241;28;20022;-61
2022/04/03 00:46:05;;;;;;;;;;;;;;;-1.05;82.85;96758.75;5092055;28;20008;-62
2022/04/03 00:48:31;;;;;;;;;;;;;;;-1.00;82.16;96755.47;5092134;28;20372;-60
2022/04/03 00:50:56;;;;;;;;;;;;;;;-0.96;82.92;96759.22;5092183;28;19920;-62
2022/04/03 00:53:23;;;;;;;;;;;;;;;-0.91;83.03;96748.94;5089831;28;20393;-62
2022/04/03 00:55:48;;;;;;;;;;;;;;;-0.99;81.79;96752.66;5092440;28;19920;-64
2022/04/03 00:58:14;;;;;;;;;;;;;;;-0.98;82.35;96756.03;5074002;28;20320;-64
2022/04/03 01:00:40;;;;;;;;;;;;;;;-1.07;82.15;96768.59;5083878;28;20393;-66
2022/04/03 01:03:05;;;;;;;;;;;;;;;-1.02;82.52;96745.31;5072005;28;19928;-67
2022/04/03 01:05:31;;;;;;;;;;;;;;;-0.96;82.16;96747.00;5070861;28;20412;-65
2022/04/03 01:07:56;;;;;;;;;;;;;;;-1.14;82.19;96749.72;5070588;28;19935;-65
2022/04/03 01:10:22;;;;;;;;;;;;;;;-1.11;82.35;96738.09;5087424;28;19969;-64
2022/04/03 01:12:48;;;;;;;;;;;;;;;-1.05;82.35;96742.38;5075489;28;19928;-64
2022/04/03 01:15:14;;;;;;;;;;;;;;;-1.11;82.29;96753.69;5070704;28;20053;-64
2022/04/03 01:17:39;;;;;;;;;;;;;;;-1.16;82.21;96742.16;5071861;28;20420;-66
2022/04/03 01:20:06;;;;;;;;;;;;;;;-1.14;82.35;96741.94;5071229;28;20017;-64
2022/04/03 01:22:32;;;;;;;;;;;;;;;-1.16;82.12;96751.75;5071185;28;19928;-66
2022/04/03 01:24:57;;;;;;;;;;;;;;;-1.26;81.77;96736.75;5071178;28;19931;-64
2022/04/03 01:27:23;;;;;;;;;;;;;;;-1.18;81.95;96741.59;5071143;28;19932;-65
2022/04/03 01:29:49;;;;;;;;;;;;;;;-1.27;81.73;96753.34;5071385;28;19971;-63
2022/04/03 01:32:14;;;;;;;;;;;;;;;-1.25;81.13;96747.91;5072814;28;20316;-65
2022/04/03 01:34:40;;;;;;;;;;;;;;;-1.22;81.56;96750.06;5071188;28;19925;-65
2022/04/03 01:37:05;;;;;;;;;;;;;;;-1.23;82.03;96738.88;5071272;28;20440;-63
2022/04/03 01:39:31;;;;;;;;;;;;;;;-1.35;81.67;96739.88;5072229;28;19925;-65
2022/04/03 01:41:57;;;;;;;;;;;;;;;-1.40;81.51;96763.97;5091325;28;19928;-65
2022/04/03 01:44:22;;;;;;;;;;;;;;;-1.31;81.36;96744.41;5091535;28;19924;-64
2022/04/03 01:46:48;;;;;;;;;;;;;;;-1.27;81.42;96744.75;5091428;28;20018;-65
2022/04/03 01:49:13;;;;;;;;;;;;;;;-1.27;81.32;96732.53;5092131;28;19970;-64
2022/04/03 01:51:39;;;;;;;;;;;;;;;-1.37;80.66;96743.50;5085720;28;20282;-64
2022/04/03 01:54:06;;;;;;;;;;;;;;;-1.33;81.29;96738.66;5075442;28;19928;-65
2022/04/03 01:56:34;;;;;;;;;;;;;;;-1.36;81.24;96739.09;5074973;28;19970;-64
2022/04/03 01:59:01;;;;;;;;;;;;;;;-1.30;81.33;96740.00;5075361;28;20390;-61
2022/04/03 02:01:28;;;;;;;;;;;;;;;-1.22;80.96;96734.47;5074782;28;20015;-59
2022/04/03 02:03:54;;;;;;;;;;;;;;;-1.32;80.86;96740.25;5074011;28;19928;-62
2022/04/03 02:06:19;;;;;;;;;;;;;;;-1.33;81.15;96732.66;5074850;28;19936;-63
2022/04/03 02:08:45;;;;;;;;;;;;;;;-1.33;80.76;96732.66;5075109;28;19940;-64
2022/04/03 02:11:11;;;;;;;;;;;;;;;-1.42;80.86;96729.59;5074860;28;20030;-64
2022/04/03 02:13:36;;;;;;;;;;;;;;;-1.47;80.99;96726.88;5075140;28;19974;-64
2022/04/03 02:16:02;;;;;;;;;;;;;;;-1.47;81.24;96722.50;5075051;28;19924;-64
2022/04/03 02:18:27;;;;;;;;;;;;;;;-1.40;80.44;96719.78;5073394;28;19932;-66
2022/04/03 02:20:53;;;;;;;;;;;;;;;-1.46;80.51;96726.69;5073526;28;19968;-64
2022/04/03 02:23:18;;;;;;;;;;;;;;;-1.49;80.93;96721.16;5074894;28;20389;-66
2022/04/03 02:25:45;;;;;;;;;;;;;;;-1.52;80.30;96712.00;5074967;28;20019;-64
2022/04/03 02:28:12;;;;;;;;;;;;;;;-1.38;80.72;96717.75;5075044;28;19979;-64
2022/04/03 02:30:37;;;;;;;;;;;;;;;-1.42;80.30;96729.59;5074244;28;19931;-63
2022/04/03 02:33:03;;;;;;;;;;;;;;;-1.47;80.61;96721.69;5074640;28;20034;-66
2022/04/03 02:35:28;;;;;;;;;;;;;;;-1.52;80.52;96716.41;5073259;28;19924;-63
2022/04/03 02:37:54;;;;;;;;;;;;;;;-1.59;80.48;96713.88;5078232;28;19935;-65
2022/04/03 02:40:19;;;;;;;;;;;;;;;-1.54;80.78;96728.81;5093023;28;19924;-66
2022/04/03 02:42:45;;;;;;;;;;;;;;;-1.62;80.02;96750.72;5093678;28;20331;-62
2022/04/03 02:45:11;;;;;;;;;;;;;;;-1.66;80.38;96728.81;5093879;28;20316;-61
2022/04/03 02:47:37;;;;;;;;;;;;;;;-1.66;80.31;96727.00;5094752;28;19928;-61
2022/04/03 02:50:04;;;;;;;;;;;;;;;-1.60;79.94;96733.09;5091430;28;19990;-62
2022/04/03 02:52:29;;;;;;;;;;;;;;;-1.61;80.00;96727.13;5074465;28;20393;-63
2022/04/03 02:54:56;;;;;;;;;;;;;;;-1.60;80.10;96736.47;5074157;28;19985;-60
2022/04/03 02:57:22;;;;;;;;;;;;;;;-1.71;79.08;96723.47;5077432;28;19935;-61
2022/04/03 02:59:48;;;;;;;;;;;;;;;-1.67;80.12;96730.63;5093836;28;20308;-61
2022/04/03 03:02:14;;;;;;;;;;;;;;;-1.58;79.49;96722.50;5093580;28;19928;-62
2022/04/03 03:04:39;;;;;;;;;;;;;;;-1.60;79.46;96730.50;5092911;28;19935;-61
2022/04/03 03:07:05;;;;;;;;;;;;;;;-1.60;79.59;96727.91;5094194;28;20120;-62
2022/04/03 03:09:31;;;;;;;;;;;;;;;-1.58;79.62;96730.28;5092590;28;20452;-63
2022/04/03 03:11:56;;;;;;;;;;;;;;;-1.63;78.87;96734.34;5092553;28;19928;-61
2022/04/03 03:14:22;;;;;;;;;;;;;;;-1.49;79.26;96723.75;5093790;28;19924;-60
2022/04/03 03:16:48;;;;;;;;;;;;;;;-1.53;79.01;96725.19;5093291;28;19928;-60
2022/04/03 03:19:15;;;;;;;;;;;;;;;-1.56;78.36;96730.84;5094133;28;20357;-61
2022/04/03 03:21:42;;;;;;;;;;;;;;;-1.53;78.35;96738.19;5093802;28;19928;-61
2022/04/03 03:24:09;;;;;;;;;;;;;;;-1.60;78.10;96731.28;5094056;28;19934;-62
2022/04/03 03:26:35;;;;;;;;;;;;;;;-1.64;78.65;96726.78;5092371;28;20031;-63
2022/04/03 03:29:01;;;;;;;;;;;;;;;-1.58;78.36;96749.25;5093658;28;19940;-62
2022/04/03 03:31:26;;;;;;;;;;;;;;;-1.56;78.32;96726.44;5094050;28;19924;-63
2022/04/03 03:33:52;;;;;;;;;;;;;;;-1.57;78.52;96737.84;5093821;28;19928;-63
2022/04/03 03:36:17;;;;;;;;;;;;;;;-1.58;78.52;96725.88;5092221;28;19924;-64
2022/04/03 03:38:44;;;;;;;;;;;;;;;-1.57;78.35;96716.28;5075334;28;19932;-64
2022/04/03 03:41:09;;;;;;;;;;;;;;;-1.54;78.58;96740.00;5073674;28;19929;-63
2022/04/03 03:43:35;;;;;;;;;;;;;;;-1.51;78.53;96736.16;5073318;28;19935;-63
2022/04/03 03:46:01;;;;;;;;;;;;;;;-1.60;78.51;96741.69;5073537;28;19935;-65
2022/04/03 03:48:27;;;;;;;;;;;;;;;-1.54;78.64;96734.78;5055177;28;20324;-65
2022/04/03 03:50:52;;;;;;;;;;;;;;;-1.53;78.25;96733.00;5086731;28;19924;-63
2022/04/03 03:53:18;;;;;;;;;;;;;;;-1.50;77.86;96737.72;5093399;28;20361;-64
2022/04/03 03:55:44;;;;;;;;;;;;;;;-1.49;78.36;96734.13;5074770;28;19928;-64
2022/04/03 03:58:09;;;;;;;;;;;;;;;-1.53;78.15;96735.59;5085924;28;19928;-61
2022/04/03 04:00:35;;;;;;;;;;;;;;;-1.59;78.06;96758.06;5092892;28;20434;-60
2022/04/03 04:03:01;;;;;;;;;;;;;;;-1.54;78.16;96739.22;5093145;28;19939;-62
2022/04/03 04:05:26;;;;;;;;;;;;;;;-1.49;78.59;96724.53;5092485;28;19924;-61
2022/04/03 04:07:52;;;;;;;;;;;;;;;-1.46;78.02;96739.66;5093056;28;19939;-61
2022/04/03 04:10:18;;;;;;;;;;;;;;;-1.44;77.98;96742.84;5092778;28;20377;-62
2022/04/03 04:12:44;;;;;;;;;;;;;;;-1.44;78.24;96748.03;5092361;28;19939;-62
2022/04/03 04:15:10;;;;;;;;;;;;;;;-1.40;77.65;96745.78;5092704;28;19919;-60
2022/04/03 04:17:36;;;;;;;;;;;;;;;-1.39;78.33;96744.75;5090809;28;19928;-64
2022/04/03 04:20:05;;;;;;;;;;;;;;;-1.35;77.88;96743.28;5091568;28;20016;-63
2022/04/03 04:22:31;;;;;;;;;;;;;;;-1.34;78.37;96750.06;5074736;28;19932;-61
2022/04/03 04:24:57;;;;;;;;;;;;;;;-1.34;77.75;96750.06;5091585;28;20072;-61
2022/04/03 04:27:22;;;;;;;;;;;;;;;-1.28;77.52;96766.56;5092341;28;20617;-63
2022/04/03 04:29:48;;;;;;;;;;;;;;;-1.18;77.33;96762.41;5092737;28;20035;-66
2022/04/03 04:32:13;;;;;;;;;;;;;;;-1.30;77.47;96753.78;5092776;28;19928;-63
2022/04/03 04:34:39;;;;;;;;;;;;;;;-1.19;77.38;96771.19;5091519;28;20462;-65
2022/04/03 04:37:05;;;;;;;;;;;;;;;-1.16;76.68;96760.34;5090462;28;19930;-63
2022/04/03 04:39:31;;;;;;;;;;;;;;;-1.04;76.98;96775.16;5092616;28;19935;-65
2022/04/03 04:41:57;;;;;;;;;;;;;;;-1.07;76.77;96766.00;5090432;28;20018;-63
2022/04/03 04:44:23;;;;;;;;;;;;;;;-1.13;75.88;96784.31;5088930;28;19978;-63
2022/04/03 04:46:48;;;;;;;;;;;;;;;-1.15;75.20;96772.34;5070511;28;19929;-64
2022/04/03 04:49:16;;;;;;;;;;;;;;;-1.01;76.41;96772.09;5072036;28;19970;-63
2022/04/03 04:51:42;;;;;;;;;;;;;;;-1.12;76.39;96765.09;5077094;28;19971;-63
2022/04/03 04:54:08;;;;;;;;;;;;;;;-1.07;75.90;96767.81;5092142;28;19975;-61
2022/04/03 04:56:34;;;;;;;;;;;;;;;-0.85;76.22;96768.00;5092163;28;19924;-60
2022/04/03 04:59:00;;;;;;;;;;;;;;;-0.99;74.81;96773.44;5090908;28;20312;-61
2022/04/03 05:01:25;;;;;;;;;;;;;;;-0.90;75.33;96778.31;5092051;28;20388;-61
2022/04/03 05:03:50;;;;;;;;;;;;;;;-1.03;75.08;96781.94;5092374;28;19938;-62
2022/04/03 05:06:16;;;;;;;;;;;;;;;-0.99;75.04;96788.28;5091822;28;19931;-61
2022/04/03 05:08:42;;;;;;;;;;;;;;;-1.06;75.07;96793.59;5092269;28;19935;-62
2022/04/03 05:11:07;;;;;;;;;;;;;;;-0.95;75.16;96797.19;5090264;28;20528;-61
2022/04/03 05:13:33;;;;;;;;;;;;;;;-0.96;73.50;96793.00;5091949;28;19928;-61
2022/04/03 05:15:58;;;;;;;;;;;;;;;-0.85;74.18;96784.41;5092100;28;20015;-61
2022/04/03 05:18:24;;;;;;;;;;;;;;;-0.78;74.55;96805.09;5092141;28;19928;-62
2022/04/03 05:20:49;;;;;;;;;;;;;;;-0.84;73.44;96786.00;5089788;28;19977;-60
2022/04/03 05:23:15;;;;;;;;;;;;;;;-0.74;72.60;96809.59;5091737;28;19927;-61
2022/04/03 05:25:40;;;;;;;;;;;;;;;-0.79;72.50;96826.94;5096260;28;19928;-61
2022/04/03 05:28:08;;;;;;;;;;;;;;;-0.89;72.37;96813.69;5094708;28;19950;-64
2022/04/03 05:30:34;;;;;;;;;;;;;;;-0.62;72.95;96812.19;5094157;28;19924;-60
2022/04/03 05:33:00;;;;;;;;;;;;;;;-0.59;71.77;96805.75;5075623;28;19935;-62
2022/04/03 05:35:25;;;;;;;;;;;;;;;-0.39;71.68;96805.38;5076179;28;19924;-62
2022/04/03 05:37:51;;;;;;;;;;;;;;;-0.39;70.63;96815.78;5089769;28;19932;-65
2022/04/03 05:40:16;;;;;;;;;;;;;;;-0.53;70.49;96829.06;5095865;28;20015;-62
2022/04/03 05:42:41;;;;;;;;;;;;;;;-0.57;70.94;96822.72;5095652;28;20372;-58
2022/04/03 05:45:08;;;;;;;;;;;;;;;-0.53;70.76;96816.03;5094435;28;19924;-58
2022/04/03 05:47:33;;;;;;;;;;;;;;;-0.36;69.22;96821.31;5095896;28;19973;-59
2022/04/03 05:49:59;;;;;;;;;;;;;;;-0.19;68.89;96826.59;5095580;28;19928;-58
2022/04/03 05:52:24;;;;;;;;;;;;;;;-0.12;68.14;96849.88;5094524;28;19928;-59
2022/04/03 05:54:50;;;;;;;;;;;;;;;0.02;68.24;96850.41;5095268;28;19924;-58
2022/04/03 05:57:16;;;;;;;;;;;;;;;-0.03;68.08;96827.66;5095367;28;19935;-60
2022/04/03 05:59:41;;;;;;;;;;;;;;;-0.11;68.03;96841.06;5095292;28;20030;-63
2022/04/03 06:02:06;;;;;;;;;;;;;;;0.09;67.82;96836.25;5089982;28;19928;-63
2022/04/03 06:04:33;;;;;;;;;;;;;;;0.08;66.97;96839.84;5081117;28;19924;-61
2022/04/03 06:06:58;;;;;;;;;;;;;;;-0.06;68.38;96841.16;5093947;28;20427;-59
2022/04/03 06:09:24;;;;;;;;;;;;;;;-0.14;68.11;96836.31;5089648;28;19924;-58
2022/04/03 06:11:51;;;;;;;;;;;;;;;-0.17;68.73;96839.41;5074641;28;19935;-63
2022/04/03 06:14:16;;;;;;;;;;;;;;;-0.27;68.69;96856.38;5069918;28;19930;-67
2022/04/03 06:16:42;;;;;;;;;;;;;;;-0.38;68.60;96840.78;5073337;28;20363;-67
2022/04/03 06:19:07;;;;;;;;;;;;;;;-0.58;68.20;96844.56;5056595;28;19928;-67
2022/04/03 06:21:33;;;;;;;;;;;;;;;-0.47;69.68;96845.56;5083149;28;19924;-62
2022/04/03 06:23:58;;;;;;;;;;;;;;;-0.57;68.88;96840.13;5092996;28;20030;-66
2022/04/03 06:26:24;;;;;;;;;;;;;;;-0.67;69.11;96848.53;5093622;28;19924;-60
2022/04/03 06:28:49;;;;;;;;;;;;;;;-0.68;69.07;96854.72;5071794;28;19940;-62
2022/04/03 06:31:15;;;;;;;;;;;;;;;-0.58;68.90;96847.16;5088421;28;19929;-62
2022/04/03 06:33:40;;;;;;;;;;;;;;;-0.79;69.87;96843.34;5085420;28;19938;-61
2022/04/03 06:36:06;;;;;;;;;;;;;;;-0.85;69.19;96877.22;5095152;28;19924;-62
2022/04/03 06:38:31;;;;;;;;;;;;;;;-0.64;68.66;96849.88;5093592;28;19966;-63
2022/04/03 06:40:57;;;;;;;;;;;;;;;-0.52;68.26;96864.47;5094618;28;19992;-62
2022/04/03 06:43:23;;;;;;;;;;;;;;;-0.29;68.04;96863.63;5086618;28;19928;-62
2022/04/03 06:45:49;;;;;;;;;;;;;;;-0.20;66.93;96876.31;5074611;28;19924;-60
2022/04/03 06:48:17;;;;;;;;;;;;;;;-0.14;67.05;96864.97;5084776;28;21462;-62
2022/04/03 06:50:42;;;;;;;;;;;;;;;0.04;66.25;96877.81;5088464;28;19924;-62
2022/04/03 06:53:08;;;;;;;;;;;;;;;0.05;66.04;96868.19;5077685;28;20404;-60
2022/04/03 06:55:34;;;;;;;;;;;;;;;0.18;64.73;96868.72;5094543;28;19924;-63
2022/04/03 06:57:59;;;;;;;;;;;;;;;0.27;66.14;96910.03;5092723;28;19928;-62
2022/04/03 07:00:26;;;;;;;;;;;;;;;0.13;65.36;96876.44;5094131;28;19923;-60
2022/04/03 07:02:51;;;;;;;;;;;;;;;0.16;64.69;96909.84;5094064;28;20051;-63
2022/04/03 07:05:17;;;;;;;;;;;;;;;0.13;64.84;96888.66;5094246;28;19963;-61
2022/04/03 07:07:42;;;;;;;;;;;;;;;0.43;64.46;96888.44;5075826;28;19924;-63
2022/04/03 07:10:09;;;;;;;;;;;;;;;0.37;63.18;96913.59;5082861;28;19967;-61
2022/04/03 07:12:35;;;;;;;;;;;;;;;0.02;63.73;96905.91;5092180;28;20408;-61
2022/04/03 07:15:01;;;;;;;;;;;;;;;-0.08;63.58;96905.72;5093796;28;19928;-61
2022/04/03 07:17:26;;;;;;;;;;;;;;;0.13;64.20;96923.31;5092884;28;20029;-63
2022/04/03 07:19:52;;;;;;;;;;;;;;;0.40;62.46;96912.34;5093693;28;20183;-61
2022/04/03 07:22:17;;;;;;;;;;;;;;;0.43;62.42;96922.31;5092417;28;20027;-60
2022/04/03 07:24:43;;;;;;;;;;;;;;;0.63;61.56;96920.09;5093086;28;19924;-60
2022/04/03 07:27:08;;;;;;;;;;;;;;;0.52;60.33;96940.97;5092558;28;19942;-60
2022/04/03 07:29:34;;;;;;;;;;;;;;;0.81;60.08;96928.72;5092419;28;20080;-61
2022/04/03 07:32:00;;;;;;;;;;;;;;;1.08;60.19;96936.75;5085128;28;19967;-61
2022/04/03 07:34:25;;;;;;;;;;;;;;;1.07;59.46;96943.00;5073549;28;19924;-61
2022/04/03 07:36:51;;;;;;;;;;;;;;;1.37;59.37;96937.47;5086482;28;19932;-61
2022/04/03 07:39:16;;;;;;;;;;;;;;;1.49;59.23;96947.81;5091702;28;19986;-60
2022/04/03 07:41:42;;;;;;;;;;;;;;;1.51;58.32;96943.94;5089380;28;20001;-59
2022/04/03 07:44:10;;;;;;;;;;;;;;;1.61;58.60;96942.50;5087741;28;20308;-64
2022/04/03 07:46:36;;;;;;;;;;;;;;;1.67;57.83;96950.16;5093252;28;20377;-59
2022/04/03 07:49:03;;;;;;;;;;;;;;;1.81;57.97;96955.84;5092182;28;19963;-58
2022/04/03 07:51:29;;;;;;;;;;;;;;;1.80;56.90;96956.88;5050662;28;20022;-58
2022/04/03 07:53:55;;;;;;;;;;;;;;;1.69;55.77;96958.56;5081525;28;20381;-59
2022/04/03 07:56:20;;;;;;;;;;;;;;;1.97;56.71;96969.91;5019380;28;19928;-62
2022/04/03 07:58:46;;;;;;;;;;;;;;;1.92;55.78;96960.19;5052779;28;20015;-62
2022/04/03 08:01:11;;;;;;;;;;;;;;;1.77;56.47;96962.59;5061698;28;19931;-62
2022/04/03 08:03:37;;;;;;;;;;;;;;;1.91;56.06;96969.06;5071426;28;19968;-61
2022/04/03 08:06:03;;;;;;;;;;;;;;;2.17;54.99;96964.16;5072971;28;20381;-61
2022/04/03 08:08:28;;;;;;;;;;;;;;;2.00;54.06;96985.09;5072801;28;19929;-62
2022/04/03 08:10:54;;;;;;;;;;;;;;;1.94;53.90;96978.22;5072807;28;19978;-62
2022/04/03 08:13:22;;;;;;;;;;;;;;;2.02;53.82;96988.25;5072703;28;19935;-63
2022/04/03 08:15:48;;;;;;;;;;;;;;;1.95;54.56;96985.03;5072543;28;20329;-62
2022/04/03 08:18:13;;;;;;;;;;;;;;;2.14;54.05;96988.16;5072592;28;20031;-64
2022/04/03 08:20:39;;;;;;;;;;;;;;;2.16;53.75;96989.50;5075291;28;20300;-62
2022/04/03 08:23:05;;;;;;;;;;;;;;;2.40;53.53;96994.50;5092463;28;19978;-65
2022/04/03 08:25:31;;;;;;;;;;;;;;;2.28;57.00;97005.06;5092449;28;19928;-62
2022/04/03 08:27:57;;;;;;;;;;;;;;;2.48;54.11;96999.31;5088046;28;20018;-61
2022/04/03 08:30:24;;;;;;;;;;;;;;;2.45;54.19;96987.50;5072426;28;20445;-62
2022/04/03 08:32:49;;;;;;;;;;;;;;;2.21;62.30;97001.84;5054480;28;19982;-62
2022/04/03 08:35:15;;;;;;;;;;;;;;;2.18;55.02;96994.50;5070927;28;20352;-61
2022/04/03 08:37:41;;;;;;;;;;;;;;;2.12;54.40;97011.94;5072328;28;20523;-62
2022/04/03 08:40:07;;;;;;;;;;;;;;;2.42;54.91;97005.50;5071996;28;20015;-60
2022/04/03 08:42:33;;;;;;;;;;;;;;;2.64;53.77;97011.50;5072882;28;20309;-60
2022/04/03 08:44:58;;;;;;;;;;;;;;;2.94;53.92;97023.34;5070989;28;19925;-60
2022/04/03 08:47:25;;;;;;;;;;;;;;;2.99;53.19;97026.03;5077155;28;20030;-62
2022/04/03 08:49:50;;;;;;;;;;;;;;;3.03;53.75;97023.69;5091512;28;19945;-61
2022/04/03 08:52:16;;;;;;;;;;;;;;;3.05;53.16;97017.19;5090416;28;20045;-62
2022/04/03 08:54:41;;;;;;;;;;;;;;;3.10;53.52;97029.53;5081783;28;19924;-62
2022/04/03 08:57:07;;;;;;;;;;;;;;;3.11;53.48;97021.44;5091448;28;20389;-62
2022/04/03 08:59:33;;;;;;;;;;;;;;;3.09;52.85;97031.38;5089491;28;19924;-62
2022/04/03 09:01:58;;;;;;;;;;;;;;;3.34;53.23;97036.06;5089618;28;19935;-64
2022/04/03 09:04:24;;;;;;;;;;;;;;;3.24;52.75;97038.59;5078961;28;19983;-61
2022/04/03 09:06:56;;;;;;;;;;;;;;;3.23;53.91;97026.50;5090770;28;19928;-62
2022/04/03 09:09:22;;;;;;;;;;;;;;;3.54;52.15;97024.19;5083087;28;19928;-62
2022/04/03 09:12:08;;;;;;;;;;;;;;;3.52;53.69;97023.63;5071974;28;20364;-63
2022/04/03 09:14:34;;;;;;;;;;;;;;;3.47;52.37;97037.50;5073876;28;19967;-63
2022/04/03 09:17:00;;;;;;;;;;;;;;;3.45;52.62;97036.16;5079102;28;19928;-65
2022/04/03 09:19:33;;;;;;;;;;;;;;;3.45;53.24;97051.88;5091775;28;19931;-63
2022/04/03 09:22:01;;;;;;;;;;;;;;;3.22;51.38;97050.34;5091574;28;20086;-62
2022/04/03 09:24:27;;;;;;;;;;;;;;;3.04;52.93;97048.84;5075254;28;19924;-62
2022/04/03 09:26:57;;;;;;;;;;;;;;;2.96;52.21;97052.69;5071530;28;19928;-64
2022/04/03 09:29:22;;;;;;;;;;;;;;;3.10;52.92;97047.88;5071692;28;19970;-63
2022/04/03 09:31:48;;;;;;;;;;;;;;;3.05;52.22;97045.97;5071807;28;20358;-63
2022/04/03 09:34:20;;;;;;;;;;;;;;;2.97;51.88;97059.50;5087670;28;19924;-63
2022/04/03 09:36:54;;;;;;;;;;;;;;;3.16;52.04;97052.91;5088922;28;19966;-63
2022/04/03 09:39:24;;;;;;;;;;;;;;;2.99;52.98;97083.59;5084275;28;19924;-62
2022/04/03 09:41:57;;;;;;;;;;;;;;;3.08;51.59;97073.50;5091457;28;19928;-66
2022/04/03 09:44:32;;;;;;;;;;;;;;;3.33;51.51;97076.38;5062583;28;20394;-65
2022/04/03 09:47:13;;;;;;;;;;;;;;;3.25;52.26;97063.72;5050357;28;19983;-63
2022/04/03 09:49:40;;;;;;;;;;;;;;;3.48;51.99;97070.50;5067325;28;19947;-63
2022/04/03 09:52:05;;;;;;;;;;;;;;;3.59;50.73;97076.63;5089825;28;19981;-65
2022/04/03 09:54:31;;;;;;;;;;;;;;;3.70;50.76;97078.28;5089347;28;19932;-62
2022/04/03 09:57:16;;;;;;;;;;;;;;;3.57;50.94;97081.31;5073801;28;20030;-62
2022/04/03 09:59:49;;;;;;;;;;;;;;;3.71;50.94;97081.72;5085772;28;20392;-62
2022/04/03 10:02:14;;;;;;;;;;;;;;;3.98;51.33;97079.03;5053334;28;19951;-61
2022/04/03 10:04:40;;;;;;;;;;;;;;;4.05;50.28;97077.75;5071038;28;20401;-63
2022/04/03 10:07:05;;;;;;;;;;;;;;;4.13;51.06;97110.59;5070734;28;20362;-63
2022/04/03 10:09:31;;;;;;;;;;;;;;;4.24;52.52;97099.13;5070386;28;20335;-60
2022/04/03 10:11:56;;;;;;;;;;;;;;;4.33;50.23;97102.09;5086203;28;20429;-60
2022/04/03 10:14:22;;;;;;;;;;;;;;;4.37;50.43;97113.63;5082713;28;20013;-60
2022/04/03 10:16:47;;;;;;;;;;;;;;;4.51;50.30;97099.03;5094018;28;19928;-61
2022/04/03 10:19:13;;;;;;;;;;;;;;;4.52;52.29;97089.31;5094018;28;19923;-62
2022/04/03 10:21:43;;;;;;;;;;;;;;;4.37;50.56;97107.59;5095205;28;19943;-61
2022/04/03 10:24:08;;;;;;;;;;;;;;;4.06;50.39;97113.44;5077073;28;20332;-59
2022/04/03 10:26:37;;;;;;;;;;;;;;;3.81;50.23;97108.75;5095413;28;19924;-60
2022/04/03 10:29:04;;;;;;;;;;;;;;;3.82;49.55;97118.22;5093953;28;20015;-59
2022/04/03 10:31:30;;;;;;;;;;;;;;;3.96;51.10;97110.72;5095282;28;19924;-61
2022/04/03 10:33:55;;;;;;;;;;;;;;;4.29;48.55;97132.47;5094970;28;19928;-62
2022/04/03 10:36:25;;;;;;;;;;;;;;;3.99;49.55;97122.53;5092658;28;20022;-61
2022/04/03 10:39:02;;;;;;;;;;;;;;;4.57;49.38;97117.44;5094660;28;19982;-58
2022/04/03 10:41:28;;;;;;;;;;;;;;;4.59;50.24;97110.09;5093345;28;19978;-60
2022/04/03 10:44:12;;;;;;;;;;;;;;;4.73;50.15;97146.13;5090579;28;19928;-61
2022/04/03 10:46:58;;;;;;;;;;;;;;;4.53;50.78;97143.41;5074510;28;19931;-62
2022/04/03 10:49:30;;;;;;;;;;;;;;;4.06;49.29;97137.03;5072869;28;19935;-61
2022/04/03 10:51:57;;;;;;;;;;;;;;;3.88;51.33;97129.50;5093988;28;20310;-60
2022/04/03 10:54:30;;;;;;;;;;;;;;;4.03;50.00;97118.38;5094144;28;19994;-65
2022/04/03 10:57:14;;;;;;;;;;;;;;;4.06;49.04;97121.31;5064011;28;20350;-65
2022/04/03 10:59:40;;;;;;;;;;;;;;;4.22;49.17;97119.56;5063138;28;19928;-66
2022/04/03 11:02:14;;;;;;;;;;;;;;;4.32;50.25;97119.66;5071977;28;20031;-63
2022/04/03 11:04:40;;;;;;;;;;;;;;;4.45;48.00;97122.88;5072525;28;19951;-63
2022/04/03 11:07:12;;;;;;;;;;;;;;;4.52;49.94;97126.06;5072136;28;20457;-62
2022/04/03 11:09:41;;;;;;;;;;;;;;;4.61;48.97;97129.00;5071330;28;19972;-62
2022/04/03 11:12:06;;;;;;;;;;;;;;;4.80;49.55;97132.78;5072164;28;19936;-63
2022/04/03 11:14:51;;;;;;;;;;;;;;;4.65;46.54;97153.69;5083961;28;20352;-64
2022/04/03 11:17:18;;;;;;;;;;;;;;;4.60;47.98;97158.91;5093817;28;20402;-62
2022/04/03 11:19:44;;;;;;;;;;;;;;;4.82;46.13;97164.00;5093487;28;19944;-64
2022/04/03 11:22:11;;;;;;;;;;;;;;;4.59;46.45;97150.25;5092496;28;19928;-65
2022/04/03 11:24:37;;;;;;;;;;;;;;;4.40;46.31;97172.69;5093728;28;20421;-62
2022/04/03 11:27:04;;;;;;;;;;;;;;;4.26;46.83;97180.94;5093173;28;20338;-63
2022/04/03 11:29:29;;;;;;;;;;;;;;;4.20;47.75;97176.72;5093307;28;19931;-65
2022/04/03 11:31:55;;;;;;;;;;;;;;;4.10;48.32;97174.03;5093473;28;19928;-63
2022/04/03 11:34:21;;;;;;;;;;;;;;;4.05;49.08;97179.22;5089926;28;19928;-62
2022/04/03 11:36:46;;;;;;;;;;;;;;;4.09;48.71;97175.06;5091922;28;19934;-61
2022/04/03 11:39:12;;;;;;;;;;;;;;;3.96;48.05;97199.06;5091792;28;19924;-61
2022/04/03 11:41:38;;;;;;;;;;;;;;;4.03;48.14;97194.38;5092146;28;20441;-64
2022/04/03 11:44:04;;;;;;;;;;;;;;;4.08;48.70;97182.13;5090780;28;19935;-65
2022/04/03 11:46:31;;;;;;;;;;;;;;;4.41;47.51;97180.31;5093485;28;19928;-65
2022/04/03 11:48:56;;;;;;;;;;;;;;;4.45;47.55;97201.56;5057774;28;20425;-63
2022/04/03 11:51:23;;;;;;;;;;;;;;;4.39;46.22;97194.72;5073301;28;19961;-63
2022/04/03 11:53:55;;;;;;;;;;;;;;;4.32;46.86;97184.41;5074604;28;20030;-63
2022/04/03 11:56:21;;;;;;;;;;;;;;;4.16;46.44;97214.97;5071262;28;19925;-62
2022/04/03 11:58:53;;;;;;;;;;;;;;;4.10;46.35;97201.03;5070859;28;20157;-62
2022/04/03 12:01:26;;;;;;;;;;;;;;;4.14;46.91;97208.38;5071146;28;19981;-61
2022/04/03 12:03:59;;;;;;;;;;;;;;;4.03;46.05;97216.19;5071491;28;19924;-63
2022/04/03 12:06:26;;;;;;;;;;;;;;;4.20;45.83;97228.38;5072394;28;19929;-62
2022/04/03 12:08:52;;;;;;;;;;;;;;;4.20;45.35;97231.00;5071973;28;19932;-62
2022/04/03 12:11:27;;;;;;;;;;;;;;;4.08;45.19;97224.06;5072401;28;19981;-63
2022/04/03 12:13:59;;;;;;;;;;;;;;;4.01;45.03;97233.97;5070475;28;19968;-63
2022/04/03 12:16:25;;;;;;;;;;;;;;;3.94;45.13;97229.97;5071698;28;19972;-64
2022/04/03 12:19:01;;;;;;;;;;;;;;;3.94;46.50;97229.97;5071961;28;20410;-66
2022/04/03 12:21:46;;;;;;;;;;;;;;;3.99;45.49;97233.44;5069345;28;19951;-65
2022/04/03 12:24:24;;;;;;;;;;;;;;;4.00;44.76;97258.63;5071346;28;20910;-65
2022/04/03 12:27:12;;;;;;;;;;;;;;;3.89;44.80;97261.38;5069704;28;19928;-64
2022/04/03 12:29:38;;;;;;;;;;;;;;;3.83;44.09;97247.44;5069091;28;19925;-65
2022/04/03 12:32:10;;;;;;;;;;;;;;;3.74;43.88;97243.66;5071142;28;20034;-66
2022/04/03 12:34:40;;;;;;;;;;;;;;;3.84;44.06;97246.38;5072224;28;19970;-67
2022/04/03 12:37:06;;;;;;;;;;;;;;;3.73;44.01;97248.09;5071887;28;19929;-63
2022/04/03 12:39:39;;;;;;;;;;;;;;;3.79;43.68;97244.47;5070110;28;20455;-64
2022/04/03 12:42:12;;;;;;;;;;;;;;;3.82;43.67;97254.50;5068321;28;20011;-64
2022/04/03 12:44:56;;;;;;;;;;;;;;;3.77;42.24;97282.47;5071367;28;19932;-65
2022/04/03 12:47:23;;;;;;;;;;;;;;;3.78;42.93;97258.63;5070465;28;19928;-64
2022/04/03 12:50:07;;;;;;;;;;;;;;;3.87;43.26;97259.00;5071446;28;19968;-62